sensor_id;sensor_type;location;lat;lon;timestamp;P1;durP1;ratioP1;P2;durP2;ratioP2
2406;SDS011;37709;53.480;9.688;2023-03-14T00:01:24;5.67;;;3.90;;
2406;SDS011;37709;53.480;9.688;2023-03-14T00:03:52;4.67;;;3.57;;
2406;SDS011;37709;53.480;9.688;2023-03-14T00:06:19;4.27;;;3.17;;
2406;SDS011;37709;53.480;9.688;2023-03-14T00:08:46;5.03;;;3.13;;
2406;SDS011;37709;53.480;9.688;2023-03-14T00:11:15;3.47;;;2.40;;
2406;SDS011;37709;53.480;9.688;2023-03-14T00:13:49;6.10;;;2.40;;
2406;SDS011;37709;53.480;9.688;2023-03-14T00:16:17;4.57;;;2.50;;
2406;SDS011;37709;53.480;9.688;2023-03-14T00:18:45;4.80;;;2.63;;
2406;SDS011;37709;53.480;9.688;2023-03-14T00:21:13;6.30;;;2.77;;
2406;SDS011;37709;53.480;9.688;2023-03-14T00:23:41;5.20;;;2.93;;
2406;SDS011;37709;53.480;9.688;2023-03-14T00:26:12;3.70;;;2.23;;
2406;SDS011;37709;53.480;9.688;2023-03-14T00:28:41;3.67;;;2.80;;
2406;SDS011;37709;53.480;9.688;2023-03-14T00:31:10;5.43;;;2.43;;
2406;SDS011;37709;53.480;9.688;2023-03-14T00:33:41;9.60;;;2.63;;
2406;SDS011;37709;53.480;9.688;2023-03-14T00:36:11;5.07;;;2.63;;
2406;SDS011;37709;53.480;9.688;2023-03-14T00:38:41;2.90;;;2.27;;
2406;SDS011;37709;53.480;9.688;2023-03-14T00:41:11;6.90;;;2.90;;
2406;SDS011;37709;53.480;9.688;2023-03-14T00:43:41;3.60;;;2.60;;
2406;SDS011;37709;53.480;9.688;2023-03-14T00:46:08;4.77;;;2.77;;
2406;SDS011;37709;53.480;9.688;2023-03-14T00:48:37;4.73;;;2.43;;
2406;SDS011;37709;53.480;9.688;2023-03-14T00:51:05;3.20;;;2.37;;
2406;SDS011;37709;53.480;9.688;2023-03-14T00:53:35;8.10;;;2.97;;
2406;SDS011;37709;53.480;9.688;2023-03-14T00:56:04;5.20;;;2.53;;
2406;SDS011;37709;53.480;9.688;2023-03-14T00:58:33;3.93;;;2.40;;
2406;SDS011;37709;53.480;9.688;2023-03-14T01:01:05;5.73;;;2.60;;
2406;SDS011;37709;53.480;9.688;2023-03-14T01:03:33;8.53;;;2.93;;
2406;SDS011;37709;53.480;9.688;2023-03-14T01:06:08;5.33;;;2.73;;
2406;SDS011;37709;53.480;9.688;2023-03-14T01:08:43;4.37;;;2.80;;
2406;SDS011;37709;53.480;9.688;2023-03-14T01:11:12;4.73;;;2.20;;
2406;SDS011;37709;53.480;9.688;2023-03-14T01:13:42;6.87;;;3.50;;
2406;SDS011;37709;53.480;9.688;2023-03-14T01:16:11;3.93;;;3.07;;
2406;SDS011;37709;53.480;9.688;2023-03-14T01:18:40;5.23;;;2.63;;
2406;SDS011;37709;53.480;9.688;2023-03-14T01:21:12;5.67;;;3.00;;
2406;SDS011;37709;53.480;9.688;2023-03-14T01:23:42;5.27;;;2.87;;
2406;SDS011;37709;53.480;9.688;2023-03-14T01:26:13;9.10;;;3.40;;
2406;SDS011;37709;53.480;9.688;2023-03-14T01:28:43;4.63;;;3.70;;
2406;SDS011;37709;53.480;9.688;2023-03-14T01:31:11;5.47;;;3.00;;
2406;SDS011;37709;53.480;9.688;2023-03-14T01:33:39;7.43;;;2.83;;
2406;SDS011;37709;53.480;9.688;2023-03-14T01:36:08;3.97;;;3.43;;
2406;SDS011;37709;53.480;9.688;2023-03-14T01:38:37;4.93;;;3.40;;
2406;SDS011;37709;53.480;9.688;2023-03-14T01:41:16;5.90;;;2.70;;
2406;SDS011;37709;53.480;9.688;2023-03-14T01:43:48;4.47;;;2.80;;
2406;SDS011;37709;53.480;9.688;2023-03-14T01:46:17;6.63;;;3.20;;
2406;SDS011;37709;53.480;9.688;2023-03-14T01:48:51;5.93;;;2.70;;
2406;SDS011;37709;53.480;9.688;2023-03-14T01:51:36;6.33;;;2.80;;
2406;SDS011;37709;53.480;9.688;2023-03-14T01:54:24;5.13;;;3.27;;
2406;SDS011;37709;53.480;9.688;2023-03-14T01:56:57;7.87;;;3.60;;
2406;SDS011;37709;53.480;9.688;2023-03-14T01:59:31;4.80;;;2.80;;
2406;SDS011;37709;53.480;9.688;2023-03-14T02:02:01;4.43;;;3.00;;
2406;SDS011;37709;53.480;9.688;2023-03-14T02:04:33;5.40;;;3.53;;
2406;SDS011;37709;53.480;9.688;2023-03-14T02:07:08;6.10;;;3.17;;
2406;SDS011;37709;53.480;9.688;2023-03-14T02:09:45;5.53;;;3.27;;
2406;SDS011;37709;53.480;9.688;2023-03-14T02:12:21;5.90;;;2.67;;
2406;SDS011;37709;53.480;9.688;2023-03-14T02:15:04;4.73;;;2.87;;
2406;SDS011;37709;53.480;9.688;2023-03-14T02:17:51;4.17;;;2.63;;
2406;SDS011;37709;53.480;9.688;2023-03-14T02:20:38;5.00;;;2.97;;
2406;SDS011;37709;53.480;9.688;2023-03-14T02:23:07;5.30;;;3.40;;
2406;SDS011;37709;53.480;9.688;2023-03-14T02:28:27;5.30;;;3.27;;
2406;SDS011;37709;53.480;9.688;2023-03-14T02:30:58;4.80;;;3.00;;
2406;SDS011;37709;53.480;9.688;2023-03-14T02:33:25;5.63;;;2.90;;
2406;SDS011;37709;53.480;9.688;2023-03-14T02:35:56;3.27;;;2.67;;
2406;SDS011;37709;53.480;9.688;2023-03-14T02:38:28;7.83;;;3.50;;
2406;SDS011;37709;53.480;9.688;2023-03-14T02:41:02;3.67;;;2.90;;
2406;SDS011;37709;53.480;9.688;2023-03-14T02:43:34;5.53;;;3.20;;
2406;SDS011;37709;53.480;9.688;2023-03-14T02:46:05;5.10;;;2.70;;
2406;SDS011;37709;53.480;9.688;2023-03-14T02:48:40;5.33;;;3.73;;
2406;SDS011;37709;53.480;9.688;2023-03-14T02:51:20;8.03;;;3.27;;
2406;SDS011;37709;53.480;9.688;2023-03-14T02:53:49;4.90;;;3.17;;
2406;SDS011;37709;53.480;9.688;2023-03-14T02:56:18;7.03;;;2.93;;
2406;SDS011;37709;53.480;9.688;2023-03-14T02:58:45;4.03;;;3.10;;
2406;SDS011;37709;53.480;9.688;2023-03-14T03:01:23;4.93;;;3.07;;
2406;SDS011;37709;53.480;9.688;2023-03-14T03:03:51;6.53;;;3.23;;
2406;SDS011;37709;53.480;9.688;2023-03-14T03:06:19;2.80;;;2.40;;
2406;SDS011;37709;53.480;9.688;2023-03-14T03:08:46;6.17;;;2.80;;
2406;SDS011;37709;53.480;9.688;2023-03-14T03:11:14;2.73;;;2.33;;
2406;SDS011;37709;53.480;9.688;2023-03-14T03:13:41;3.23;;;2.77;;
2406;SDS011;37709;53.480;9.688;2023-03-14T03:16:09;4.13;;;2.80;;
2406;SDS011;37709;53.480;9.688;2023-03-14T03:18:36;3.17;;;2.53;;
2406;SDS011;37709;53.480;9.688;2023-03-14T03:21:04;5.03;;;3.10;;
2406;SDS011;37709;53.480;9.688;2023-03-14T03:23:32;4.23;;;2.50;;
2406;SDS011;37709;53.480;9.688;2023-03-14T03:26:00;3.50;;;2.50;;
2406;SDS011;37709;53.480;9.688;2023-03-14T03:28:29;6.63;;;2.40;;
2406;SDS011;37709;53.480;9.688;2023-03-14T03:30:57;4.70;;;2.57;;
2406;SDS011;37709;53.480;9.688;2023-03-14T03:33:25;4.73;;;3.03;;
2406;SDS011;37709;53.480;9.688;2023-03-14T03:35:53;5.53;;;2.33;;
2406;SDS011;37709;53.480;9.688;2023-03-14T03:38:28;2.77;;;2.10;;
2406;SDS011;37709;53.480;9.688;2023-03-14T03:40:58;3.40;;;2.60;;
2406;SDS011;37709;53.480;9.688;2023-03-14T03:43:27;3.23;;;1.97;;
2406;SDS011;37709;53.480;9.688;2023-03-14T03:45:54;4.43;;;2.90;;
2406;SDS011;37709;53.480;9.688;2023-03-14T03:48:23;5.27;;;2.87;;
2406;SDS011;37709;53.480;9.688;2023-03-14T03:50:51;5.57;;;2.73;;
2406;SDS011;37709;53.480;9.688;2023-03-14T03:53:21;4.77;;;2.70;;
2406;SDS011;37709;53.480;9.688;2023-03-14T03:56:01;4.37;;;2.20;;
2406;SDS011;37709;53.480;9.688;2023-03-14T03:58:29;5.47;;;3.00;;
2406;SDS011;37709;53.480;9.688;2023-03-14T04:00:56;4.03;;;2.43;;
2406;SDS011;37709;53.480;9.688;2023-03-14T04:03:24;8.00;;;3.00;;
2406;SDS011;37709;53.480;9.688;2023-03-14T04:06:05;3.37;;;2.30;;
2406;SDS011;37709;53.480;9.688;2023-03-14T04:08:39;7.90;;;2.83;;
2406;SDS011;37709;53.480;9.688;2023-03-14T04:11:11;2.93;;;2.03;;
2406;SDS011;37709;53.480;9.688;2023-03-14T04:13:51;3.40;;;2.47;;
2406;SDS011;37709;53.480;9.688;2023-03-14T04:16:20;6.20;;;3.00;;
2406;SDS011;37709;53.480;9.688;2023-03-14T04:18:52;4.60;;;2.70;;
2406;SDS011;37709;53.480;9.688;2023-03-14T04:21:22;2.57;;;2.07;;
2406;SDS011;37709;53.480;9.688;2023-03-14T04:23:54;5.53;;;3.10;;
2406;SDS011;37709;53.480;9.688;2023-03-14T04:26:22;5.50;;;3.10;;
2406;SDS011;37709;53.480;9.688;2023-03-14T04:28:50;4.57;;;3.03;;
2406;SDS011;37709;53.480;9.688;2023-03-14T04:31:18;5.13;;;3.60;;
2406;SDS011;37709;53.480;9.688;2023-03-14T04:33:47;6.50;;;2.53;;
2406;SDS011;37709;53.480;9.688;2023-03-14T04:36:20;7.40;;;3.13;;
2406;SDS011;37709;53.480;9.688;2023-03-14T04:38:48;3.10;;;2.53;;
2406;SDS011;37709;53.480;9.688;2023-03-14T04:41:19;3.73;;;2.17;;
2406;SDS011;37709;53.480;9.688;2023-03-14T04:43:46;4.63;;;1.93;;
2406;SDS011;37709;53.480;9.688;2023-03-14T04:46:14;2.60;;;2.10;;
2406;SDS011;37709;53.480;9.688;2023-03-14T04:48:43;2.87;;;2.13;;
2406;SDS011;37709;53.480;9.688;2023-03-14T04:51:10;2.03;;;1.83;;
2406;SDS011;37709;53.480;9.688;2023-03-14T04:53:37;4.80;;;2.40;;
2406;SDS011;37709;53.480;9.688;2023-03-14T04:56:09;9.00;;;2.60;;
2406;SDS011;37709;53.480;9.688;2023-03-14T04:58:38;6.53;;;2.87;;
2406;SDS011;37709;53.480;9.688;2023-03-14T05:01:06;7.90;;;3.20;;
2406;SDS011;37709;53.480;9.688;2023-03-14T05:03:36;6.87;;;3.70;;
2406;SDS011;37709;53.480;9.688;2023-03-14T05:06:10;10.13;;;4.67;;
2406;SDS011;37709;53.480;9.688;2023-03-14T05:08:57;10.23;;;4.10;;
2406;SDS011;37709;53.480;9.688;2023-03-14T05:11:40;6.20;;;4.20;;
2406;SDS011;37709;53.480;9.688;2023-03-14T05:14:19;6.40;;;3.20;;
2406;SDS011;37709;53.480;9.688;2023-03-14T05:16:59;6.63;;;3.13;;
2406;SDS011;37709;53.480;9.688;2023-03-14T05:19:40;6.00;;;3.87;;
2406;SDS011;37709;53.480;9.688;2023-03-14T05:22:34;5.20;;;3.27;;
2406;SDS011;37709;53.480;9.688;2023-03-14T05:25:33;6.63;;;3.57;;
2406;SDS011;37709;53.480;9.688;2023-03-14T05:28:10;8.60;;;4.20;;
2406;SDS011;37709;53.480;9.688;2023-03-14T05:30:51;6.97;;;3.80;;
2406;SDS011;37709;53.480;9.688;2023-03-14T05:33:39;7.60;;;4.77;;
2406;SDS011;37709;53.480;9.688;2023-03-14T05:36:25;8.00;;;4.50;;
2406;SDS011;37709;53.480;9.688;2023-03-14T05:39:01;7.33;;;4.17;;
2406;SDS011;37709;53.480;9.688;2023-03-14T05:41:56;8.27;;;5.57;;
2406;SDS011;37709;53.480;9.688;2023-03-14T05:45:02;8.60;;;5.20;;
2406;SDS011;37709;53.480;9.688;2023-03-14T05:47:45;13.20;;;6.03;;
2406;SDS011;37709;53.480;9.688;2023-03-14T05:50:37;6.77;;;4.80;;
2406;SDS011;37709;53.480;9.688;2023-03-14T05:53:23;8.83;;;5.00;;
2406;SDS011;37709;53.480;9.688;2023-03-14T05:56:09;11.27;;;4.60;;
2406;SDS011;37709;53.480;9.688;2023-03-14T05:59:02;7.77;;;5.40;;
2406;SDS011;37709;53.480;9.688;2023-03-14T06:01:40;7.20;;;5.60;;
2406;SDS011;37709;53.480;9.688;2023-03-14T06:04:18;10.30;;;5.43;;
2406;SDS011;37709;53.480;9.688;2023-03-14T06:06:50;9.87;;;5.90;;
2406;SDS011;37709;53.480;9.688;2023-03-14T06:09:17;6.27;;;4.73;;
2406;SDS011;37709;53.480;9.688;2023-03-14T06:11:46;7.83;;;5.30;;
2406;SDS011;37709;53.480;9.688;2023-03-14T06:14:14;11.10;;;5.27;;
2406;SDS011;37709;53.480;9.688;2023-03-14T06:16:44;5.47;;;4.47;;
2406;SDS011;37709;53.480;9.688;2023-03-14T06:19:12;11.80;;;5.40;;
2406;SDS011;37709;53.480;9.688;2023-03-14T06:21:41;7.67;;;5.83;;
2406;SDS011;37709;53.480;9.688;2023-03-14T06:24:09;5.70;;;4.50;;
2406;SDS011;37709;53.480;9.688;2023-03-14T06:26:42;8.00;;;4.97;;
2406;SDS011;37709;53.480;9.688;2023-03-14T06:29:10;6.77;;;4.00;;
2406;SDS011;37709;53.480;9.688;2023-03-14T06:31:38;6.60;;;4.40;;
2406;SDS011;37709;53.480;9.688;2023-03-14T06:34:07;6.43;;;3.97;;
2406;SDS011;37709;53.480;9.688;2023-03-14T06:36:34;7.90;;;4.67;;
2406;SDS011;37709;53.480;9.688;2023-03-14T06:39:02;10.50;;;4.53;;
2406;SDS011;37709;53.480;9.688;2023-03-14T06:41:32;7.60;;;5.00;;
2406;SDS011;37709;53.480;9.688;2023-03-14T06:44:00;6.20;;;3.03;;
2406;SDS011;37709;53.480;9.688;2023-03-14T06:46:28;5.47;;;3.60;;
2406;SDS011;37709;53.480;9.688;2023-03-14T06:48:55;7.27;;;3.60;;
2406;SDS011;37709;53.480;9.688;2023-03-14T06:51:23;7.93;;;3.70;;
2406;SDS011;37709;53.480;9.688;2023-03-14T06:53:51;6.20;;;2.77;;
2406;SDS011;37709;53.480;9.688;2023-03-14T06:56:22;3.00;;;1.60;;
2406;SDS011;37709;53.480;9.688;2023-03-14T06:58:50;4.33;;;2.00;;
2406;SDS011;37709;53.480;9.688;2023-03-14T07:01:22;4.70;;;2.13;;
2406;SDS011;37709;53.480;9.688;2023-03-14T07:03:54;7.20;;;1.90;;
2406;SDS011;37709;53.480;9.688;2023-03-14T07:06:22;2.77;;;2.13;;
2406;SDS011;37709;53.480;9.688;2023-03-14T07:08:50;3.27;;;1.50;;
2406;SDS011;37709;53.480;9.688;2023-03-14T07:11:18;3.93;;;1.90;;
2406;SDS011;37709;53.480;9.688;2023-03-14T07:13:45;3.20;;;1.80;;
2406;SDS011;37709;53.480;9.688;2023-03-14T07:16:13;4.57;;;2.00;;
2406;SDS011;37709;53.480;9.688;2023-03-14T07:18:41;4.60;;;2.07;;
2406;SDS011;37709;53.480;9.688;2023-03-14T07:21:09;7.23;;;2.83;;
2406;SDS011;37709;53.480;9.688;2023-03-14T07:23:37;6.00;;;2.87;;
2406;SDS011;37709;53.480;9.688;2023-03-14T07:26:06;3.63;;;2.20;;
2406;SDS011;37709;53.480;9.688;2023-03-14T07:28:36;4.43;;;3.30;;
2406;SDS011;37709;53.480;9.688;2023-03-14T07:31:09;4.80;;;2.70;;
2406;SDS011;37709;53.480;9.688;2023-03-14T07:33:38;3.80;;;2.40;;
2406;SDS011;37709;53.480;9.688;2023-03-14T07:36:05;5.20;;;2.40;;
2406;SDS011;37709;53.480;9.688;2023-03-14T07:38:34;2.40;;;1.80;;
2406;SDS011;37709;53.480;9.688;2023-03-14T07:41:21;3.40;;;2.40;;
2406;SDS011;37709;53.480;9.688;2023-03-14T07:44:08;2.93;;;2.00;;
2406;SDS011;37709;53.480;9.688;2023-03-14T07:46:36;3.80;;;2.53;;
2406;SDS011;37709;53.480;9.688;2023-03-14T07:49:03;6.00;;;1.50;;
2406;SDS011;37709;53.480;9.688;2023-03-14T07:51:31;3.20;;;1.43;;
2406;SDS011;37709;53.480;9.688;2023-03-14T07:53:59;2.90;;;1.60;;
2406;SDS011;37709;53.480;9.688;2023-03-14T07:56:26;4.50;;;2.00;;
2406;SDS011;37709;53.480;9.688;2023-03-14T07:58:54;4.90;;;1.80;;
2406;SDS011;37709;53.480;9.688;2023-03-14T08:01:21;3.67;;;1.47;;
2406;SDS011;37709;53.480;9.688;2023-03-14T08:03:49;2.17;;;1.30;;
2406;SDS011;37709;53.480;9.688;2023-03-14T08:06:17;2.10;;;1.60;;
2406;SDS011;37709;53.480;9.688;2023-03-14T08:08:44;2.00;;;1.30;;
2406;SDS011;37709;53.480;9.688;2023-03-14T08:11:12;1.80;;;1.30;;
2406;SDS011;37709;53.480;9.688;2023-03-14T08:13:40;1.03;;;0.90;;
2406;SDS011;37709;53.480;9.688;2023-03-14T08:16:07;2.73;;;1.03;;
2406;SDS011;37709;53.480;9.688;2023-03-14T08:18:35;2.27;;;1.67;;
2406;SDS011;37709;53.480;9.688;2023-03-14T08:21:03;2.10;;;1.50;;
2406;SDS011;37709;53.480;9.688;2023-03-14T08:23:30;2.10;;;1.50;;
2406;SDS011;37709;53.480;9.688;2023-03-14T08:25:58;3.43;;;1.70;;
2406;SDS011;37709;53.480;9.688;2023-03-14T08:28:25;5.37;;;1.87;;
2406;SDS011;37709;53.480;9.688;2023-03-14T08:30:57;7.23;;;1.73;;
2406;SDS011;37709;53.480;9.688;2023-03-14T08:33:25;1.57;;;1.10;;
2406;SDS011;37709;53.480;9.688;2023-03-14T08:35:54;4.27;;;1.77;;
2406;SDS011;37709;53.480;9.688;2023-03-14T08:38:23;6.07;;;2.87;;
2406;SDS011;37709;53.480;9.688;2023-03-14T08:41:00;3.20;;;2.23;;
2406;SDS011;37709;53.480;9.688;2023-03-14T08:43:29;3.30;;;1.67;;
2406;SDS011;37709;53.480;9.688;2023-03-14T08:45:59;3.70;;;2.67;;
2406;SDS011;37709;53.480;9.688;2023-03-14T08:48:28;4.80;;;2.60;;
2406;SDS011;37709;53.480;9.688;2023-03-14T08:50:57;5.00;;;2.47;;
2406;SDS011;37709;53.480;9.688;2023-03-14T08:53:31;3.90;;;2.07;;
2406;SDS011;37709;53.480;9.688;2023-03-14T08:55:59;5.50;;;2.60;;
2406;SDS011;37709;53.480;9.688;2023-03-14T08:58:27;6.43;;;3.70;;
2406;SDS011;37709;53.480;9.688;2023-03-14T09:00:54;4.43;;;2.30;;
2406;SDS011;37709;53.480;9.688;2023-03-14T09:03:22;3.80;;;3.40;;
2406;SDS011;37709;53.480;9.688;2023-03-14T09:05:50;8.17;;;3.10;;
2406;SDS011;37709;53.480;9.688;2023-03-14T09:08:18;4.30;;;3.07;;
2406;SDS011;37709;53.480;9.688;2023-03-14T09:10:46;10.13;;;3.47;;
2406;SDS011;37709;53.480;9.688;2023-03-14T09:13:14;4.87;;;2.97;;
2406;SDS011;37709;53.480;9.688;2023-03-14T09:15:41;6.50;;;3.00;;
2406;SDS011;37709;53.480;9.688;2023-03-14T09:18:09;4.07;;;2.53;;
2406;SDS011;37709;53.480;9.688;2023-03-14T09:20:36;6.10;;;3.23;;
2406;SDS011;37709;53.480;9.688;2023-03-14T09:23:03;11.43;;;3.00;;
2406;SDS011;37709;53.480;9.688;2023-03-14T09:25:31;6.90;;;3.87;;
2406;SDS011;37709;53.480;9.688;2023-03-14T09:27:58;9.93;;;4.27;;
2406;SDS011;37709;53.480;9.688;2023-03-14T09:30:25;10.93;;;4.07;;
2406;SDS011;37709;53.480;9.688;2023-03-14T09:32:52;11.13;;;4.53;;
2406;SDS011;37709;53.480;9.688;2023-03-14T09:35:20;6.77;;;3.43;;
2406;SDS011;37709;53.480;9.688;2023-03-14T09:37:48;4.87;;;3.20;;
2406;SDS011;37709;53.480;9.688;2023-03-14T09:40:16;4.90;;;2.80;;
2406;SDS011;37709;53.480;9.688;2023-03-14T09:42:45;4.40;;;1.23;;
2406;SDS011;37709;53.480;9.688;2023-03-14T09:45:24;1.60;;;0.70;;
2406;SDS011;37709;53.480;9.688;2023-03-14T09:47:54;1.50;;;0.63;;
2406;SDS011;37709;53.480;9.688;2023-03-14T09:50:27;1.77;;;0.97;;
2406;SDS011;37709;53.480;9.688;2023-03-14T09:53:07;3.00;;;1.03;;
2406;SDS011;37709;53.480;9.688;2023-03-14T09:55:38;1.63;;;1.20;;
2406;SDS011;37709;53.480;9.688;2023-03-14T09:58:09;3.63;;;1.00;;
2406;SDS011;37709;53.480;9.688;2023-03-14T10:00:40;3.80;;;1.97;;
2406;SDS011;37709;53.480;9.688;2023-03-14T10:05:41;5.17;;;3.13;;
2406;SDS011;37709;53.480;9.688;2023-03-14T10:08:12;4.43;;;3.00;;
2406;SDS011;37709;53.480;9.688;2023-03-14T10:10:40;5.03;;;3.70;;
2406;SDS011;37709;53.480;9.688;2023-03-14T10:13:16;6.43;;;3.97;;
2406;SDS011;37709;53.480;9.688;2023-03-14T10:15:51;1.93;;;1.83;;
2406;SDS011;37709;53.480;9.688;2023-03-14T10:18:20;2.10;;;1.77;;
2406;SDS011;37709;53.480;9.688;2023-03-14T10:20:49;1.40;;;1.20;;
2406;SDS011;37709;53.480;9.688;2023-03-14T10:23:29;1.40;;;1.10;;
2406;SDS011;37709;53.480;9.688;2023-03-14T10:26:18;1.37;;;1.27;;
2406;SDS011;37709;53.480;9.688;2023-03-14T10:28:52;1.33;;;1.23;;
2406;SDS011;37709;53.480;9.688;2023-03-14T10:31:27;1.93;;;1.73;;
2406;SDS011;37709;53.480;9.688;2023-03-14T10:33:58;1.93;;;0.90;;
2406;SDS011;37709;53.480;9.688;2023-03-14T10:36:32;1.67;;;0.80;;
2406;SDS011;37709;53.480;9.688;2023-03-14T10:39:21;0.60;;;0.47;;
2406;SDS011;37709;53.480;9.688;2023-03-14T10:41:55;0.90;;;0.40;;
2406;SDS011;37709;53.480;9.688;2023-03-14T10:44:38;0.57;;;0.33;;
2406;SDS011;37709;53.480;9.688;2023-03-14T10:47:12;0.80;;;0.50;;
2406;SDS011;37709;53.480;9.688;2023-03-14T10:49:45;1.37;;;0.60;;
2406;SDS011;37709;53.480;9.688;2023-03-14T10:52:13;0.80;;;0.60;;
2406;SDS011;37709;53.480;9.688;2023-03-14T10:55:14;1.10;;;0.43;;
2406;SDS011;37709;53.480;9.688;2023-03-14T10:57:42;1.70;;;0.80;;
2406;SDS011;37709;53.480;9.688;2023-03-14T11:00:17;1.50;;;0.90;;
2406;SDS011;37709;53.480;9.688;2023-03-14T11:11:16;1.67;;;0.80;;
2406;SDS011;37709;53.480;9.688;2023-03-14T11:13:57;0.90;;;0.50;;
2406;SDS011;37709;53.480;9.688;2023-03-14T11:16:53;2.40;;;0.60;;
2406;SDS011;37709;53.480;9.688;2023-03-14T11:22:34;2.23;;;1.13;;
2406;SDS011;37709;53.480;9.688;2023-03-14T11:28:01;1.43;;;0.90;;
2406;SDS011;37709;53.480;9.688;2023-03-14T11:30:42;1.60;;;0.70;;
2406;SDS011;37709;53.480;9.688;2023-03-14T11:33:16;1.07;;;0.67;;
2406;SDS011;37709;53.480;9.688;2023-03-14T11:36:07;1.83;;;0.80;;
2406;SDS011;37709;53.480;9.688;2023-03-14T11:41:45;2.33;;;0.83;;
2406;SDS011;37709;53.480;9.688;2023-03-14T11:44:20;2.93;;;1.07;;
2406;SDS011;37709;53.480;9.688;2023-03-14T11:49:45;1.37;;;0.70;;
2406;SDS011;37709;53.480;9.688;2023-03-14T11:55:05;3.23;;;0.80;;
2406;SDS011;37709;53.480;9.688;2023-03-14T11:57:39;3.17;;;0.90;;
2406;SDS011;37709;53.480;9.688;2023-03-14T12:05:46;2.00;;;1.00;;
2406;SDS011;37709;53.480;9.688;2023-03-14T12:08:27;2.10;;;1.10;;
2406;SDS011;37709;53.480;9.688;2023-03-14T12:11:00;5.67;;;0.90;;
2406;SDS011;37709;53.480;9.688;2023-03-14T12:13:36;5.70;;;1.47;;
2406;SDS011;37709;53.480;9.688;2023-03-14T12:16:05;3.37;;;1.13;;
2406;SDS011;37709;53.480;9.688;2023-03-14T12:18:47;6.40;;;1.20;;
2406;SDS011;37709;53.480;9.688;2023-03-14T12:21:15;4.30;;;1.00;;
2406;SDS011;37709;53.480;9.688;2023-03-14T12:23:50;5.47;;;1.50;;
2406;SDS011;37709;53.480;9.688;2023-03-14T12:26:20;4.90;;;1.07;;
2406;SDS011;37709;53.480;9.688;2023-03-14T12:29:09;3.83;;;1.20;;
2406;SDS011;37709;53.480;9.688;2023-03-14T12:31:43;4.77;;;1.90;;
2406;SDS011;37709;53.480;9.688;2023-03-14T12:39:37;3.93;;;1.40;;
2406;SDS011;37709;53.480;9.688;2023-03-14T12:42:21;5.87;;;1.53;;
2406;SDS011;37709;53.480;9.688;2023-03-14T12:45:30;4.43;;;1.37;;
2406;SDS011;37709;53.480;9.688;2023-03-14T12:50:45;5.27;;;1.77;;
2406;SDS011;37709;53.480;9.688;2023-03-14T12:54:06;9.83;;;2.10;;
2406;SDS011;37709;53.480;9.688;2023-03-14T12:59:19;6.20;;;1.93;;
2406;SDS011;37709;53.480;9.688;2023-03-14T13:04:34;4.40;;;1.73;;
2406;SDS011;37709;53.480;9.688;2023-03-14T13:07:10;4.37;;;1.53;;
2406;SDS011;37709;53.480;9.688;2023-03-14T13:10:03;10.17;;;1.73;;
2406;SDS011;37709;53.480;9.688;2023-03-14T13:15:23;7.40;;;1.43;;
2406;SDS011;37709;53.480;9.688;2023-03-14T13:17:56;4.43;;;1.83;;
2406;SDS011;37709;53.480;9.688;2023-03-14T13:20:40;8.27;;;1.50;;
2406;SDS011;37709;53.480;9.688;2023-03-14T13:23:23;4.60;;;1.93;;
2406;SDS011;37709;53.480;9.688;2023-03-14T13:25:51;2.03;;;1.13;;
2406;SDS011;37709;53.480;9.688;2023-03-14T13:28:18;7.63;;;2.13;;
2406;SDS011;37709;53.480;9.688;2023-03-14T13:30:48;6.57;;;2.00;;
2406;SDS011;37709;53.480;9.688;2023-03-14T13:33:19;7.40;;;2.20;;
2406;SDS011;37709;53.480;9.688;2023-03-14T13:35:49;4.37;;;1.63;;
2406;SDS011;37709;53.480;9.688;2023-03-14T13:38:24;3.87;;;1.40;;
2406;SDS011;37709;53.480;9.688;2023-03-14T13:40:54;5.03;;;1.73;;
2406;SDS011;37709;53.480;9.688;2023-03-14T13:43:45;3.53;;;1.53;;
2406;SDS011;37709;53.480;9.688;2023-03-14T13:46:22;9.83;;;2.60;;
2406;SDS011;37709;53.480;9.688;2023-03-14T13:48:54;5.33;;;1.67;;
2406;SDS011;37709;53.480;9.688;2023-03-14T13:51:24;3.67;;;1.40;;
2406;SDS011;37709;53.480;9.688;2023-03-14T13:53:55;2.90;;;1.10;;
2406;SDS011;37709;53.480;9.688;2023-03-14T13:56:24;3.93;;;1.57;;
2406;SDS011;37709;53.480;9.688;2023-03-14T13:58:53;2.23;;;0.93;;
2406;SDS011;37709;53.480;9.688;2023-03-14T14:01:27;2.37;;;1.37;;
2406;SDS011;37709;53.480;9.688;2023-03-14T14:04:02;6.53;;;1.40;;
2406;SDS011;37709;53.480;9.688;2023-03-14T14:11:53;2.53;;;1.07;;
2406;SDS011;37709;53.480;9.688;2023-03-14T14:14:47;6.17;;;1.43;;
2406;SDS011;37709;53.480;9.688;2023-03-14T14:17:36;3.50;;;1.37;;
2406;SDS011;37709;53.480;9.688;2023-03-14T14:20:17;5.30;;;1.30;;
2406;SDS011;37709;53.480;9.688;2023-03-14T14:22:50;4.20;;;1.23;;
2406;SDS011;37709;53.480;9.688;2023-03-14T14:25:17;4.90;;;1.63;;
2406;SDS011;37709;53.480;9.688;2023-03-14T14:27:49;4.93;;;1.13;;
2406;SDS011;37709;53.480;9.688;2023-03-14T14:32:46;8.43;;;1.73;;
2406;SDS011;37709;53.480;9.688;2023-03-14T14:35:22;5.23;;;1.50;;
2406;SDS011;37709;53.480;9.688;2023-03-14T14:37:51;9.13;;;1.90;;
2406;SDS011;37709;53.480;9.688;2023-03-14T14:40:19;7.50;;;2.10;;
2406;SDS011;37709;53.480;9.688;2023-03-14T14:42:49;4.93;;;1.03;;
2406;SDS011;37709;53.480;9.688;2023-03-14T14:45:22;4.77;;;1.40;;
2406;SDS011;37709;53.480;9.688;2023-03-14T14:47:54;5.67;;;1.30;;
2406;SDS011;37709;53.480;9.688;2023-03-14T14:50:32;3.93;;;1.30;;
2406;SDS011;37709;53.480;9.688;2023-03-14T14:53:02;6.10;;;1.70;;
2406;SDS011;37709;53.480;9.688;2023-03-14T14:55:45;3.07;;;1.37;;
2406;SDS011;37709;53.480;9.688;2023-03-14T14:58:25;2.73;;;0.60;;
2406;SDS011;37709;53.480;9.688;2023-03-14T15:00:58;5.27;;;1.50;;
2406;SDS011;37709;53.480;9.688;2023-03-14T15:03:31;3.47;;;1.20;;
2406;SDS011;37709;53.480;9.688;2023-03-14T15:06:01;3.20;;;1.30;;
2406;SDS011;37709;53.480;9.688;2023-03-14T15:08:29;2.27;;;0.80;;
2406;SDS011;37709;53.480;9.688;2023-03-14T15:10:58;2.20;;;1.40;;
2406;SDS011;37709;53.480;9.688;2023-03-14T15:13:25;3.93;;;1.23;;
2406;SDS011;37709;53.480;9.688;2023-03-14T15:15:53;5.47;;;1.93;;
2406;SDS011;37709;53.480;9.688;2023-03-14T15:18:23;1.70;;;0.97;;
2406;SDS011;37709;53.480;9.688;2023-03-14T15:20:54;8.13;;;1.23;;
2406;SDS011;37709;53.480;9.688;2023-03-14T15:23:22;6.43;;;1.77;;
2406;SDS011;37709;53.480;9.688;2023-03-14T15:25:49;7.17;;;1.40;;
2406;SDS011;37709;53.480;9.688;2023-03-14T15:28:23;4.30;;;1.60;;
2406;SDS011;37709;53.480;9.688;2023-03-14T15:30:52;7.20;;;1.83;;
2406;SDS011;37709;53.480;9.688;2023-03-14T15:33:21;1.57;;;1.23;;
2406;SDS011;37709;53.480;9.688;2023-03-14T15:35:49;3.63;;;1.50;;
2406;SDS011;37709;53.480;9.688;2023-03-14T15:38:18;4.23;;;1.87;;
2406;SDS011;37709;53.480;9.688;2023-03-14T15:40:51;4.17;;;1.20;;
2406;SDS011;37709;53.480;9.688;2023-03-14T15:43:19;8.10;;;2.10;;
2406;SDS011;37709;53.480;9.688;2023-03-14T15:45:53;5.20;;;1.70;;
2406;SDS011;37709;53.480;9.688;2023-03-14T15:48:21;5.30;;;1.27;;
2406;SDS011;37709;53.480;9.688;2023-03-14T15:50:49;2.60;;;0.77;;
2406;SDS011;37709;53.480;9.688;2023-03-14T15:53:16;4.23;;;1.63;;
2406;SDS011;37709;53.480;9.688;2023-03-14T15:55:43;7.80;;;2.37;;
2406;SDS011;37709;53.480;9.688;2023-03-14T15:58:15;7.33;;;1.77;;
2406;SDS011;37709;53.480;9.688;2023-03-14T16:00:48;4.10;;;1.20;;
2406;SDS011;37709;53.480;9.688;2023-03-14T16:03:16;5.20;;;2.33;;
2406;SDS011;37709;53.480;9.688;2023-03-14T16:05:43;2.97;;;1.40;;
2406;SDS011;37709;53.480;9.688;2023-03-14T16:08:11;7.23;;;1.43;;
2406;SDS011;37709;53.480;9.688;2023-03-14T16:10:39;3.90;;;1.23;;
2406;SDS011;37709;53.480;9.688;2023-03-14T16:13:06;5.47;;;1.27;;
2406;SDS011;37709;53.480;9.688;2023-03-14T16:15:34;3.40;;;1.30;;
2406;SDS011;37709;53.480;9.688;2023-03-14T16:18:01;3.47;;;0.93;;
2406;SDS011;37709;53.480;9.688;2023-03-14T16:20:53;4.03;;;0.97;;
2406;SDS011;37709;53.480;9.688;2023-03-14T16:23:21;3.53;;;1.13;;
2406;SDS011;37709;53.480;9.688;2023-03-14T16:25:49;5.23;;;1.47;;
2406;SDS011;37709;53.480;9.688;2023-03-14T16:28:16;8.27;;;1.40;;
2406;SDS011;37709;53.480;9.688;2023-03-14T16:30:44;3.60;;;1.10;;